< < Back
Terminal Aerodrome Forecast


Current Version              Previous Versions:   1  2  3  4  5  6  7  8  9  

Terminal Aerodrome Forecast

727
FTUS42 KJAX 272017 AAB
TAFJAX
TAF AMD
KJAX 272017Z 2720/2818 26012KT 6SM -SHRA VCTS SCT015CB BKN025
      OVC080
      TEMPO 2720/2722 3SM SHRA BKN015 OVC025
     FM272200 29014G24KT P6SM VCSH SCT015 BKN025
     FM280000 29010KT P6SM SCT040 BKN250
     FM280300 32010KT P6SM SKC
     FM281500 30011G22KT P6SM SCT250=

Latest METAR

476
SAUS80 KWBC 280900
MTRJAX
METAR KJAX 280856Z 28005KT 10SM CLR 07/03 A3002 RMK AO2 SLP165 T00720033
53012


USA.gov is the U.S. government's official web portal to all federal, state and local government web resources and services.